createdAt,value
2019-03-28T00:00:00.357Z,103642.84
2019-03-28T00:05:02.627Z,103640.72
2019-03-28T00:10:06.452Z,103643.34
2019-03-28T00:15:08.658Z,103642.80
2019-03-28T00:20:11.434Z,103636.24
2019-03-28T00:25:13.684Z,103639.02
2019-03-28T00:30:15.883Z,103644.80
2019-03-28T00:35:18.664Z,103642.30
2019-03-28T00:40:22.391Z,103640.88
2019-03-28T00:45:24.568Z,103631.92
2019-03-28T00:50:26.807Z,103634.70
2019-03-28T00:55:29.009Z,103625.52
2019-03-28T01:00:31.197Z,103626.32
2019-03-28T01:05:33.798Z,103623.31
2019-03-28T01:10:37.165Z,103623.96
2019-03-28T01:15:39.403Z,103616.09
2019-03-28T01:20:43.662Z,103605.20
2019-03-28T01:25:45.878Z,103604.79
2019-03-28T01:30:48.024Z,103610.45
2019-03-28T01:35:50.197Z,103610.84
2019-03-28T01:40:52.397Z,103618.19
2019-03-28T01:45:54.615Z,103608.85
2019-03-28T01:50:57.247Z,103612.13
2019-03-28T01:55:59.959Z,103616.22
2019-03-28T02:01:02.929Z,103609.66
2019-03-28T02:06:05.376Z,103610.16
2019-03-28T02:11:07.630Z,103611.86
2019-03-28T02:16:09.867Z,103616.06
2019-03-28T02:21:12.218Z,103611.59
2019-03-28T02:26:14.426Z,103608.58
2019-03-28T02:31:17.085Z,103616.72
2019-03-28T02:36:19.550Z,103611.05
2019-03-28T02:41:22.178Z,103607.50
2019-03-28T02:46:25.327Z,103613.17
2019-03-28T02:51:27.517Z,103607.39
2019-03-28T02:56:29.695Z,103604.38
2019-03-28T03:01:31.921Z,103605.95
2019-03-28T03:06:34.182Z,103601.98
2019-03-28T03:11:36.489Z,103607.11
2019-03-28T03:16:39.137Z,103610.13
2019-03-28T03:21:41.372Z,103609.47
2019-03-28T03:26:43.614Z,103610.78
2019-03-28T03:31:45.825Z,103616.84
2019-03-28T03:36:48.353Z,103622.19
2019-03-28T03:41:50.693Z,103617.22
2019-03-28T03:46:53.801Z,103620.61
2019-03-28T03:51:56.382Z,103619.56
2019-03-28T03:56:58.650Z,103619.13
2019-03-28T04:02:00.943Z,103625.41
2019-03-28T04:07:03.436Z,103600.19
2019-03-28T04:12:06.712Z,103620.70
2019-03-28T04:17:08.943Z,103615.12
2019-03-28T04:22:11.152Z,103618.72
2019-03-28T04:27:13.821Z,103624.69
2019-03-28T04:32:15.999Z,103630.19
2019-03-28T04:37:18.295Z,103627.55
2019-03-28T04:42:20.541Z,103631.74
2019-03-28T04:47:22.776Z,103628.32
2019-03-28T04:52:25.390Z,103631.33
2019-03-28T04:57:27.873Z,103630.63
2019-03-28T05:02:30.144Z,103638.49
2019-03-28T05:07:32.747Z,103646.15
2019-03-28T05:12:34.971Z,103640.55
2019-03-28T05:17:37.251Z,103639.91
2019-03-28T05:22:39.516Z,103644.11
2019-03-28T05:27:41.675Z,103646.47
2019-03-28T05:32:46.661Z,103641.23
2019-03-28T05:37:48.796Z,103640.84
2019-03-28T05:42:51.031Z,103647.23
2019-03-28T05:47:54.281Z,103647.02
2019-03-28T05:52:56.558Z,103644.69
2019-03-28T05:57:58.803Z,103657.61
2019-03-28T06:03:01.020Z,103661.34
2019-03-28T06:08:03.362Z,103669.50
2019-03-28T06:13:05.861Z,103673.61
2019-03-28T06:18:08.171Z,103674.81
2019-03-28T06:23:10.348Z,103676.95
2019-03-28T06:28:13.171Z,103679.45
2019-03-28T06:33:15.314Z,103683.27
2019-03-28T06:38:17.548Z,103683.69
2019-03-28T06:43:19.757Z,103692.48
2019-03-28T06:48:22.045Z,103694.03
2019-03-28T06:53:24.248Z,103696.67
2019-03-28T06:58:26.454Z,103695.59
2019-03-28T07:03:29.793Z,103695.46
2019-03-28T07:08:32.033Z,103693.45
2019-03-28T07:13:34.221Z,103701.05
2019-03-28T07:18:36.574Z,103702.88
2019-03-28T07:23:38.823Z,103702.76
2019-03-28T07:28:41.025Z,103699.74
2019-03-28T07:33:43.680Z,103703.16
2019-03-28T07:38:46.569Z,103703.64
2019-03-28T07:43:48.810Z,103708.52
2019-03-28T07:48:51.162Z,103697.70
2019-03-28T07:53:53.401Z,103698.23
2019-03-28T07:58:56.037Z,103706.89
2019-03-28T08:03:58.626Z,103706.77
2019-03-28T08:09:00.876Z,103704.58
2019-03-28T08:14:03.423Z,103707.16
2019-03-28T08:19:07.997Z,103709.71
2019-03-28T08:24:09.917Z,103708.58
2019-03-28T08:29:12.166Z,103716.27
2019-03-28T08:34:14.883Z,103717.58
2019-03-28T08:39:17.247Z,103716.52
2019-03-28T08:44:22.550Z,103722.08
2019-03-28T08:49:23.747Z,103715.48
2019-03-28T08:54:25.975Z,103725.95
2019-03-28T08:59:28.460Z,103716.94
2019-03-28T09:04:30.713Z,103709.67
2019-03-28T09:09:33.021Z,103707.56
2019-03-28T09:14:35.206Z,103713.94
2019-03-28T09:19:39.103Z,103711.85
2019-03-28T09:24:41.609Z,103715.17
2019-03-28T09:29:43.749Z,103721.94
2019-03-28T09:34:45.995Z,103710.33
2019-03-28T09:39:48.248Z,103724.94
2019-03-28T09:44:50.437Z,103731.55
2019-03-28T09:49:53.146Z,103719.27
2019-03-28T09:54:55.423Z,103713.60
2019-03-28T09:59:57.643Z,103721.06
2019-03-28T10:05:00.409Z,103714.50
2019-03-28T10:10:03.155Z,103716.00
2019-03-28T10:15:05.339Z,103719.42
2019-03-28T10:20:07.489Z,103718.63
2019-03-28T10:25:12.418Z,103716.06
2019-03-28T10:30:15.657Z,103718.60
2019-03-28T10:35:36.235Z,103713.44
2019-03-28T10:40:38.458Z,103713.78
2019-03-28T10:45:40.775Z,103724.08
2019-03-28T10:50:45.756Z,103728.78
2019-03-28T10:55:48.201Z,103726.45
2019-03-28T11:00:50.466Z,103720.53
2019-03-28T11:05:52.679Z,103727.58
2019-03-28T11:10:55.246Z,103718.41
2019-03-28T11:15:57.549Z,103721.86
2019-03-28T11:20:59.830Z,103719.13
2019-03-28T11:26:02.112Z,103715.34
2019-03-28T11:31:04.342Z,103719.70
2019-03-28T11:36:06.596Z,103710.70
2019-03-28T11:41:08.981Z,103706.34
2019-03-28T11:46:11.184Z,103719.71
2019-03-28T11:51:13.362Z,103716.26
2019-03-28T11:56:15.593Z,103710.67
2019-03-28T12:01:18.218Z,103703.56
2019-03-28T12:06:20.591Z,103705.33
2019-03-28T12:11:22.766Z,103706.88
2019-03-28T12:16:24.957Z,103701.20
2019-03-28T12:21:27.193Z,103691.45
2019-03-28T12:26:29.533Z,103692.56
2019-03-28T12:31:33.425Z,103692.47
2019-03-28T12:36:35.711Z,103694.13
2019-03-28T12:41:37.896Z,103683.18
2019-03-28T12:46:40.853Z,103682.94
2019-03-28T12:51:43.550Z,103679.14
2019-03-28T12:56:45.860Z,103684.98
2019-03-28T13:01:48.129Z,103680.20
2019-03-28T13:06:50.304Z,103673.46
2019-03-28T13:11:52.773Z,103660.42
2019-03-28T13:16:55.002Z,103668.78
2019-03-28T13:21:57.173Z,103660.03
2019-03-28T13:26:59.800Z,103653.19
2019-03-28T13:32:02.046Z,103655.09
2019-03-28T13:37:04.184Z,103652.50
2019-03-28T13:42:06.381Z,103645.12
2019-03-28T13:47:08.650Z,103653.27
2019-03-28T13:52:11.174Z,103647.15
2019-03-28T13:57:13.727Z,103645.82
2019-03-28T14:02:17.225Z,103645.43
2019-03-28T14:07:19.427Z,103644.80
2019-03-28T14:12:23.323Z,103636.01
2019-03-28T14:17:27.002Z,103636.50
2019-03-28T14:22:29.241Z,103637.81
2019-03-28T14:27:31.452Z,103631.22
2019-03-28T14:32:33.669Z,103625.19
2019-03-28T14:37:35.821Z,103618.59
2019-03-28T14:42:38.041Z,103626.14
2019-03-28T14:47:40.836Z,103620.83
2019-03-28T14:52:43.580Z,103620.09
2019-03-28T14:57:45.724Z,103613.97
2019-03-28T15:02:48.380Z,103611.56
2019-03-28T15:07:51.543Z,103610.58
2019-03-28T15:12:54.026Z,103619.75
2019-03-28T15:17:56.149Z,103616.19
2019-03-28T15:22:58.757Z,103599.62
2019-03-28T15:28:01.346Z,103607.43
2019-03-28T15:33:07.066Z,103594.34
2019-03-28T15:38:09.319Z,103598.35
2019-03-28T15:43:11.670Z,103590.48
2019-03-28T15:48:14.062Z,103582.95
2019-03-28T15:53:16.381Z,103573.92
2019-03-28T15:58:23.663Z,103572.27
2019-03-28T16:03:22.717Z,103577.81
2019-03-28T16:08:25.120Z,103575.77
2019-03-28T16:13:27.282Z,103580.05
2019-03-28T16:18:30.541Z,103585.52
2019-03-28T16:23:32.746Z,103587.42
2019-03-28T16:28:34.904Z,103573.82
2019-03-28T16:33:37.383Z,103583.81
2019-03-28T16:38:39.826Z,103570.62
2019-03-28T16:43:41.987Z,103568.39
2019-03-28T16:48:44.246Z,103567.83
2019-03-28T16:53:46.427Z,103564.41
2019-03-28T16:58:48.714Z,103559.80
2019-03-28T17:03:50.901Z,103557.46
2019-03-28T17:08:53.670Z,103559.41
2019-03-28T17:13:55.830Z,103556.09
2019-03-28T17:18:58.163Z,103557.59
2019-03-28T17:24:00.682Z,103562.70
2019-03-28T17:29:02.897Z,103558.80
2019-03-28T17:34:05.082Z,103555.86
2019-03-28T17:39:07.433Z,103561.03
2019-03-28T17:44:09.654Z,103556.13
2019-03-28T17:49:11.988Z,103560.75
2019-03-28T17:54:14.210Z,103560.01
2019-03-28T17:59:16.492Z,103561.63
2019-03-28T18:04:23.150Z,103560.75
2019-03-28T18:09:23.940Z,103569.94
2019-03-28T18:14:26.238Z,103560.38
2019-03-28T18:19:28.500Z,103567.53
2019-03-28T18:24:31.608Z,103565.13
2019-03-28T18:29:35.900Z,103565.81
2019-03-28T18:34:37.998Z,103570.36
2019-03-28T18:39:40.111Z,103573.89
2019-03-28T18:44:42.309Z,103576.98
2019-03-28T18:49:44.447Z,103571.34
2019-03-28T18:54:46.646Z,103582.64
2019-03-28T18:59:49.686Z,103577.53
2019-03-28T19:04:51.946Z,103575.53
2019-03-28T19:09:54.185Z,103575.47
2019-03-28T19:14:56.355Z,103578.80
2019-03-28T19:19:59.670Z,103578.81
2019-03-28T19:25:02.131Z,103577.45
2019-03-28T19:30:04.565Z,103574.75
2019-03-28T19:35:07.206Z,103576.14
2019-03-28T19:40:09.370Z,103573.34
2019-03-28T19:45:16.792Z,103575.00
2019-03-28T19:50:29.030Z,103578.97
2019-03-28T19:55:30.132Z,103573.25
2019-03-28T20:00:32.402Z,103580.36
2019-03-28T20:05:47.479Z,103584.33
2019-03-28T20:10:41.825Z,103582.61
2019-03-28T20:15:44.653Z,103591.67
2019-03-28T20:20:48.130Z,103598.75
2019-03-28T20:25:50.335Z,103597.44
2019-03-28T20:30:53.828Z,103597.28
2019-03-28T20:36:12.021Z,103606.44
2019-03-28T20:41:01.033Z,103608.37
2019-03-28T20:46:03.302Z,103602.99
2019-03-28T20:51:05.429Z,103603.05
2019-03-28T20:56:07.848Z,103599.22
2019-03-28T21:01:10.094Z,103600.89
2019-03-28T21:06:15.560Z,103610.37
2019-03-28T21:11:16.391Z,103608.91
2019-03-28T21:16:18.595Z,103613.61
2019-03-28T21:21:20.885Z,103613.31
2019-03-28T21:26:23.065Z,103609.45
2019-03-28T21:31:25.315Z,103607.55
2019-03-28T21:36:30.074Z,103615.63
2019-03-28T21:41:31.633Z,103618.61
2019-03-28T21:46:33.858Z,103618.41
2019-03-28T21:51:36.513Z,103619.43
2019-03-28T21:56:41.331Z,103617.55
2019-03-28T22:01:43.059Z,103616.84
2019-03-28T22:06:45.176Z,103618.75
2019-03-28T22:11:47.333Z,103616.60
2019-03-28T22:16:49.983Z,103611.71
2019-03-28T22:21:53.729Z,103610.32
2019-03-28T22:26:55.901Z,103610.03
2019-03-28T22:31:58.458Z,103609.73
2019-03-28T22:37:03.464Z,103603.78
2019-03-28T22:42:04.750Z,103599.11
2019-03-28T22:47:06.951Z,103608.16
2019-03-28T22:52:09.131Z,103602.59
2019-03-28T22:57:11.725Z,103604.14
2019-03-28T23:02:13.872Z,103599.13
2019-03-28T23:07:16.041Z,103601.94
2019-03-28T23:12:18.192Z,103595.44
2019-03-28T23:17:21.066Z,103589.98
2019-03-28T23:22:23.598Z,103586.62
2019-03-28T23:27:26.880Z,103587.79
2019-03-28T23:32:29.210Z,103579.81
2019-03-28T23:37:31.729Z,103585.05
2019-03-28T23:42:33.852Z,103582.63
2019-03-28T23:47:36.033Z,103574.94
2019-03-28T23:52:38.275Z,103569.14
2019-03-28T23:57:44.468Z,103565.64
